createdAt,value
2023-03-03T00:02:14.743Z,-0.57
2023-03-03T00:07:23.322Z,-0.63
2023-03-03T00:12:26.369Z,-0.68
2023-03-03T00:17:29.121Z,-0.68
2023-03-03T00:22:32.377Z,-0.67
2023-03-03T00:27:36.070Z,-0.67
2023-03-03T00:32:38.609Z,-0.67
2023-03-03T00:37:42.142Z,-0.70
2023-03-03T00:42:44.742Z,-0.69
2023-03-03T00:47:47.914Z,-0.71
2023-03-03T00:52:51.056Z,-0.72
2023-03-03T00:57:54.041Z,-0.75
2023-03-03T01:02:56.611Z,-0.75
2023-03-03T01:07:59.298Z,-0.78
2023-03-03T01:13:01.620Z,-0.71
2023-03-03T01:18:03.898Z,-0.71
2023-03-03T01:23:06.214Z,-0.67
2023-03-03T01:28:08.981Z,-0.67
2023-03-03T01:33:11.778Z,-0.68
2023-03-03T01:38:14.212Z,-0.74
2023-03-03T01:43:16.537Z,-0.72
2023-03-03T01:48:19.492Z,-0.70
2023-03-03T01:53:22.763Z,-0.71
2023-03-03T01:58:26.032Z,-0.70
2023-03-03T02:03:28.366Z,-0.69
2023-03-03T02:08:30.658Z,-0.74
2023-03-03T02:13:33.041Z,-0.75
2023-03-03T02:18:35.489Z,-0.64
2023-03-03T02:23:37.816Z,-0.57
2023-03-03T02:28:40.220Z,-0.53
2023-03-03T02:33:42.608Z,-0.55
2023-03-03T02:38:44.929Z,-0.57
2023-03-03T02:43:47.585Z,-0.48
2023-03-03T02:48:50.009Z,-0.31
2023-03-03T02:53:52.341Z,-0.16
2023-03-03T02:58:55.093Z,0.04
2023-03-03T03:03:57.907Z,0.21
2023-03-03T03:09:01.185Z,0.42
2023-03-03T03:14:03.915Z,0.53
2023-03-03T03:19:16.229Z,0.64
2023-03-03T03:24:19.326Z,0.68
2023-03-03T03:29:22.403Z,0.81
2023-03-03T03:34:25.670Z,0.90
2023-03-03T03:39:29.007Z,0.88
2023-03-03T03:44:32.135Z,1.01
2023-03-03T03:49:34.540Z,1.05
2023-03-03T03:54:37.120Z,1.03
2023-03-03T03:59:39.863Z,1.03
2023-03-03T04:04:42.288Z,1.08
2023-03-03T04:09:44.690Z,1.09
2023-03-03T04:14:47.855Z,1.11
2023-03-03T04:19:50.276Z,1.17
2023-03-03T04:24:52.720Z,1.11
2023-03-03T04:29:55.090Z,1.08
2023-03-03T04:35:07.205Z,1.05
2023-03-03T04:40:10.718Z,1.05
2023-03-03T04:45:23.088Z,1.13
2023-03-03T04:50:26.416Z,1.07
2023-03-03T04:55:28.813Z,1.03
2023-03-03T05:00:31.997Z,1.14
2023-03-03T05:05:34.993Z,1.18
2023-03-03T05:10:37.809Z,1.13
2023-03-03T05:15:43.161Z,1.25
2023-03-03T05:20:45.648Z,1.28
2023-03-03T05:25:48.331Z,1.31
2023-03-03T05:30:50.686Z,1.29
2023-03-03T05:35:53.155Z,1.30
2023-03-03T05:40:56.658Z,1.30
2023-03-03T05:45:59.076Z,1.24
2023-03-03T05:51:02.213Z,1.29
2023-03-03T05:56:04.994Z,1.30
2023-03-03T06:01:07.600Z,1.30
2023-03-03T06:06:10.186Z,1.38
2023-03-03T06:11:13.074Z,1.39
2023-03-03T06:16:16.301Z,1.26
2023-03-03T06:21:18.788Z,1.39
2023-03-03T06:26:21.117Z,1.35
2023-03-03T06:31:24.085Z,1.31
2023-03-03T06:36:27.302Z,1.34
2023-03-03T06:41:29.602Z,1.40
2023-03-03T06:46:32.223Z,1.52
2023-03-03T06:51:35.095Z,1.56
2023-03-03T06:56:37.863Z,1.61
2023-03-03T07:01:40.292Z,1.69
2023-03-03T07:06:43.284Z,1.67
2023-03-03T07:11:46.701Z,1.77
2023-03-03T07:16:49.432Z,1.85
2023-03-03T07:21:51.739Z,1.94
2023-03-03T07:26:54.896Z,1.97
2023-03-03T07:31:57.298Z,1.97
2023-03-03T07:37:01.045Z,1.98
2023-03-03T07:42:13.439Z,2.05
2023-03-03T07:47:16.161Z,2.12
2023-03-03T07:52:28.503Z,2.28
2023-03-03T07:57:31.507Z,2.53
2023-03-03T08:02:34.288Z,2.82
2023-03-03T08:07:36.689Z,3.14
2023-03-03T08:12:39.697Z,3.37
2023-03-03T08:17:42.169Z,3.53
2023-03-03T08:22:44.520Z,3.80
2023-03-03T08:27:47.656Z,4.02
2023-03-03T08:32:50.049Z,4.14
2023-03-03T08:37:53.182Z,4.39
2023-03-03T08:42:55.543Z,4.28
2023-03-03T08:48:01.225Z,4.41
2023-03-03T08:53:08.382Z,4.49
2023-03-03T08:58:11.094Z,4.82
2023-03-03T09:03:13.489Z,4.82
2023-03-03T09:08:16.013Z,4.85
2023-03-03T09:13:18.954Z,4.88
2023-03-03T09:18:22.333Z,5.38
2023-03-03T09:23:25.491Z,5.30
2023-03-03T09:28:28.068Z,5.34
2023-03-03T09:33:30.804Z,5.35
2023-03-03T09:38:33.535Z,5.46
2023-03-03T09:43:43.802Z,5.55
2023-03-03T09:48:47.053Z,5.94
2023-03-03T09:53:50.151Z,6.37
2023-03-03T09:58:53.056Z,6.48
2023-03-03T10:03:55.414Z,6.09
2023-03-03T10:08:57.768Z,6.43
2023-03-03T10:14:00.368Z,6.84
2023-03-03T10:19:03.461Z,6.00
2023-03-03T10:24:05.878Z,5.91
2023-03-03T10:29:08.964Z,5.70
2023-03-03T10:34:14.269Z,5.97
2023-03-03T10:39:16.638Z,6.65
2023-03-03T10:44:18.996Z,7.20
2023-03-03T10:49:21.358Z,7.69
2023-03-03T10:54:23.753Z,7.34
2023-03-03T10:59:26.608Z,7.37
2023-03-03T11:04:29.696Z,6.73
2023-03-03T11:09:35.034Z,7.02
2023-03-03T11:14:37.523Z,7.15
2023-03-03T11:19:39.898Z,6.92
2023-03-03T11:24:52.224Z,7.03
2023-03-03T11:29:54.853Z,6.54
2023-03-03T11:34:57.244Z,6.89
2023-03-03T11:39:59.541Z,7.40
2023-03-03T11:45:03.198Z,7.64
2023-03-03T11:50:05.864Z,7.85
2023-03-03T11:55:08.289Z,8.13
2023-03-03T12:00:10.615Z,8.40
2023-03-03T12:05:13.035Z,8.88
2023-03-03T12:10:18.124Z,8.12
2023-03-03T12:15:20.594Z,6.84
2023-03-03T12:20:23.734Z,6.40
2023-03-03T12:25:26.799Z,6.34
2023-03-03T12:30:29.175Z,6.36
2023-03-03T12:35:31.526Z,6.47
2023-03-03T12:40:33.912Z,6.41
2023-03-03T12:45:36.486Z,5.93
2023-03-03T12:50:38.925Z,5.58
2023-03-03T12:55:41.312Z,5.87
2023-03-03T13:00:44.663Z,5.94
2023-03-03T13:05:48.173Z,6.24
2023-03-03T13:10:51.533Z,6.29
2023-03-03T13:15:56.131Z,6.59
2023-03-03T13:20:58.787Z,6.94
2023-03-03T13:26:01.780Z,6.84
2023-03-03T13:31:04.261Z,6.39
2023-03-03T13:36:06.642Z,6.15
2023-03-03T13:41:08.943Z,5.98
2023-03-03T13:46:11.605Z,5.95
2023-03-03T13:51:14.072Z,6.23
2023-03-03T13:56:17.330Z,6.30
2023-03-03T14:01:20.687Z,6.16
2023-03-03T14:06:23.055Z,6.35
2023-03-03T14:11:25.508Z,6.45
2023-03-03T14:16:36.103Z,6.50
2023-03-03T14:21:39.242Z,6.39
2023-03-03T14:26:41.765Z,6.22
2023-03-03T14:31:44.082Z,6.25
2023-03-03T14:36:47.062Z,6.29
2023-03-03T14:41:52.650Z,6.30
2023-03-03T14:46:57.129Z,6.21
2023-03-03T14:51:59.474Z,6.26
2023-03-03T14:57:01.833Z,6.36
2023-03-03T15:02:04.398Z,6.37
2023-03-03T15:07:06.781Z,6.28
2023-03-03T15:12:09.707Z,6.36
2023-03-03T15:17:12.071Z,6.34
2023-03-03T15:22:17.765Z,6.43
2023-03-03T15:27:20.174Z,6.42
2023-03-03T15:32:22.594Z,6.60
2023-03-03T15:37:25.508Z,6.59
2023-03-03T15:42:28.839Z,6.61
2023-03-03T15:47:31.642Z,6.80
2023-03-03T15:52:34.553Z,6.90
2023-03-03T15:57:37.774Z,7.03
2023-03-03T16:02:40.518Z,7.12
2023-03-03T16:07:43.024Z,7.09
2023-03-03T16:12:46.198Z,7.21
2023-03-03T16:17:48.528Z,7.21
2023-03-03T16:22:50.844Z,7.03
2023-03-03T16:27:53.264Z,7.03
2023-03-03T16:32:55.598Z,6.78
2023-03-03T16:37:58.758Z,6.68
2023-03-03T16:43:09.411Z,6.52
2023-03-03T16:48:12.177Z,6.35
2023-03-03T16:53:15.966Z,6.13
2023-03-03T16:58:18.389Z,5.95
2023-03-03T17:03:21.628Z,5.86
2023-03-03T17:08:24.300Z,5.71
2023-03-03T17:13:27.049Z,5.66
2023-03-03T17:18:30.255Z,5.51
2023-03-03T17:23:34.766Z,5.41
2023-03-03T17:28:37.124Z,5.27
2023-03-03T17:33:40.058Z,5.15
2023-03-03T17:38:43.244Z,5.00
2023-03-03T17:43:46.515Z,4.87
2023-03-03T17:48:49.727Z,4.79
2023-03-03T17:53:52.061Z,4.61
2023-03-03T17:58:55.565Z,4.53
2023-03-03T18:03:58.745Z,4.33
2023-03-03T18:09:13.317Z,4.16
2023-03-03T18:14:16.839Z,3.97
2023-03-03T18:19:19.182Z,3.87
2023-03-03T18:24:21.511Z,3.71
2023-03-03T18:29:24.585Z,3.64
2023-03-03T18:34:27.101Z,3.64
2023-03-03T18:39:29.730Z,3.56
2023-03-03T18:44:32.085Z,3.43
2023-03-03T18:49:44.486Z,3.37
2023-03-03T18:54:46.981Z,3.23
2023-03-03T18:59:49.466Z,3.14
2023-03-03T19:04:55.424Z,3.04
2023-03-03T19:09:58.540Z,2.95
2023-03-03T19:15:04.422Z,2.93
2023-03-03T19:20:07.770Z,2.86
2023-03-03T19:25:10.912Z,2.85
2023-03-03T19:30:23.641Z,2.84
2023-03-03T19:35:26.004Z,2.83
2023-03-03T19:40:28.802Z,2.70
2023-03-03T19:45:31.809Z,2.61
2023-03-03T19:50:36.031Z,2.47
2023-03-03T19:55:38.840Z,2.40
2023-03-03T20:00:41.593Z,2.30
2023-03-03T20:05:46.197Z,2.29
2023-03-03T20:10:49.489Z,2.24
2023-03-03T20:15:51.887Z,2.25
2023-03-03T20:20:54.211Z,2.19
2023-03-03T20:25:56.802Z,2.17
2023-03-03T20:30:59.226Z,2.19
2023-03-03T20:36:02.202Z,2.22
2023-03-03T20:41:05.561Z,2.13
2023-03-03T20:46:08.251Z,2.09
2023-03-03T20:51:10.950Z,2.08
2023-03-03T20:56:14.183Z,2.01
2023-03-03T21:01:17.372Z,2.02
2023-03-03T21:06:20.875Z,1.93
2023-03-03T21:11:24.086Z,1.86
2023-03-03T21:16:26.504Z,1.81
2023-03-03T21:21:29.747Z,1.77
2023-03-03T21:26:32.475Z,1.79
2023-03-03T21:31:36.936Z,1.71
2023-03-03T21:36:39.398Z,1.73
2023-03-03T21:41:51.744Z,1.72
2023-03-03T21:46:56.914Z,1.69
2023-03-03T21:52:01.728Z,1.65
2023-03-03T21:57:04.847Z,1.65
2023-03-03T22:02:08.204Z,1.63
2023-03-03T22:07:10.555Z,1.58
2023-03-03T22:12:14.114Z,1.57
2023-03-03T22:17:17.343Z,1.49
2023-03-03T22:22:19.723Z,1.53
2023-03-03T22:27:22.098Z,1.42
2023-03-03T22:32:24.597Z,1.39
2023-03-03T22:37:27.304Z,1.37
2023-03-03T22:42:29.730Z,1.33
2023-03-03T22:47:33.347Z,1.27
2023-03-03T22:52:36.122Z,1.23
2023-03-03T22:57:39.093Z,1.24
2023-03-03T23:02:51.496Z,1.20
2023-03-03T23:07:54.345Z,1.16
2023-03-03T23:12:56.936Z,1.11
2023-03-03T23:17:59.290Z,1.07
2023-03-03T23:23:02.137Z,1.05
2023-03-03T23:28:05.395Z,1.06
2023-03-03T23:33:07.752Z,1.03
2023-03-03T23:38:15.287Z,0.94
2023-03-03T23:43:18.049Z,0.94
2023-03-03T23:48:21.372Z,0.85
2023-03-03T23:53:23.791Z,0.83
2023-03-03T23:58:27.038Z,0.81
